Al Hillah, Iraq
Current Conditions -  °F | °C
As of 1:00 AM on Friday 24 Oct 2014 (Local Time) from ORNI Reporting Station
Clear Clear  
Wind Chill: 64°   Ceiling: Unl
Heat Index: 64°   Visibility: 4mi
Dew Point: 48°   Wind: 0mph
Humidity: 56%   Direction: NA
Pressure: 29.97"   Gusts: NA
Location:  32.48°N, 44.46°E
Report Text: ORNI 232200Z 00000KT 7000 NSC 18/09 Q1015 NOSIG
Loading
Personal Weather Stations






























Interactive Weather Map New forecast layout! Learn more

10-Day Weather Forecast

Advertisements
Track Severe Weather on mobile